Walkerville, Montana
Current Conditions -  °F | °C
As of 10:53 PM on Wednesday 22 Oct 2014 (Local Time) from KBTM Reporting Station
Clear Clear  
Wind Chill: 33°   Ceiling: Unl
Heat Index: 38°   Visibility: 10mi
Dew Point: 30°   Wind: 6mph
Humidity: 73%   Direction: 80°E
Pressure: 30.03"   Gusts: NA
Location:  45.9274°N, 112.504°W
Report Text: KBTM 230453Z AUTO 08005KT 10SM CLR 03/M01 A3003 RMK AO2 SLP171 T00331011
Loading
Personal Weather Stations






























Interactive Weather Map
Tropical Storm Tracking
New forecast layout! Learn more

10-Day Weather Forecast

Advertisements
Track Severe Weather on mobile